Time;durP1;ratioP1;P1;durP2;ratioP2;P2;SDS_P1;SDS_P2;PMS_P1;PMS_P2;Temp;Humidity;BMP_temperature;BMP_pressure;BME280_temperature;BME280_humidity;BME280_pressure;Samples;Min_cycle;Max_cycle;Signal;HPM_P1;HPM_P2
2021/01/06 00:00:29;;;;;;;21.67;15.60;;;2.60;99.90;;;;;;4994750;28;20513;-71
2021/01/06 00:02:55;;;;;;;21.08;15.20;;;2.60;99.90;;;;;;4993717;28;20406;-70
2021/01/06 00:05:22;;;;;;;21.48;15.95;;;2.60;99.90;;;;;;4997009;28;20397;-70
2021/01/06 00:07:48;;;;;;;20.00;14.88;;;2.60;99.90;;;;;;4996347;28;20096;-72
2021/01/06 00:10:20;;;;;;;18.63;13.52;;;2.80;99.90;;;;;;4996826;28;20034;-70
2021/01/06 00:12:45;;;;;;;17.52;13.25;;;2.90;99.90;;;;;;4996956;28;20105;-71
2021/01/06 00:15:22;;;;;;;17.00;13.52;;;2.90;99.90;;;;;;4996433;28;20101;-71
2021/01/06 00:17:47;;;;;;;20.75;14.88;;;2.70;99.90;;;;;;4996478;28;20036;-70
2021/01/06 00:20:14;;;;;;;20.67;13.75;;;2.80;99.90;;;;;;4994393;28;20030;-71
2021/01/06 00:22:40;;;;;;;17.83;13.07;;;2.90;99.90;;;;;;4996313;28;20520;-70
2021/01/06 00:25:07;;;;;;;16.15;13.48;;;2.90;99.90;;;;;;4994637;28;20527;-71
2021/01/06 00:27:32;;;;;;;18.55;14.57;;;2.70;99.90;;;;;;4994445;28;20030;-71
2021/01/06 00:29:58;;;;;;;20.20;13.70;;;2.50;99.90;;;;;;4983207;28;20478;-72
2021/01/06 00:32:24;;;;;;;21.55;15.02;;;2.50;99.90;;;;;;5002253;28;20026;-73
2021/01/06 00:34:49;;;;;;;19.55;14.88;;;2.50;99.90;;;;;;5007669;28;20046;-72
2021/01/06 00:37:15;;;;;;;19.05;13.90;;;2.50;99.90;;;;;;4995743;28;20049;-72
2021/01/06 00:39:41;;;;;;;19.63;14.50;;;2.40;99.90;;;;;;4995504;28;20038;-70
2021/01/06 00:42:07;;;;;;;19.63;14.23;;;2.40;99.90;;;;;;4995250;28;20098;-70
2021/01/06 00:44:33;;;;;;;18.27;13.35;;;2.50;99.90;;;;;;4995733;28;20026;-69
2021/01/06 00:46:58;;;;;;;24.33;15.18;;;2.50;99.90;;;;;;4995235;28;20045;-71
2021/01/06 00:49:24;;;;;;;24.30;15.52;;;2.50;99.90;;;;;;4995719;28;20414;-72
2021/01/06 00:51:50;;;;;;;19.48;13.35;;;2.40;99.90;;;;;;4995446;28;20030;-72
2021/01/06 00:54:16;;;;;;;19.98;13.73;;;2.60;99.90;;;;;;4994677;28;20386;-73
2021/01/06 00:56:42;;;;;;;20.63;14.25;;;2.70;99.90;;;;;;4995753;28;20041;-72
2021/01/06 00:59:07;;;;;;;21.40;13.82;;;2.90;99.90;;;;;;4995592;28;20039;-71
2021/01/06 01:01:33;;;;;;;18.23;13.82;;;2.80;99.90;;;;;;4994144;28;20538;-70
2021/01/06 01:03:59;;;;;;;20.38;13.55;;;2.70;99.90;;;;;;4995351;28;20105;-70
2021/01/06 01:06:32;;;;;;;18.08;13.95;;;2.70;99.90;;;;;;4996101;28;20027;-70
2021/01/06 01:08:59;;;;;;;17.15;13.98;;;2.70;99.90;;;;;;4994455;28;20544;-70
2021/01/06 01:11:26;;;;;;;21.02;14.00;;;2.40;99.90;;;;;;4993966;28;20189;-71
2021/01/06 01:13:53;;;;;;;17.60;13.82;;;2.40;99.90;;;;;;4994460;28;20030;-71
2021/01/06 01:16:20;;;;;;;17.10;13.27;;;2.40;99.90;;;;;;4994317;28;20084;-71
2021/01/06 01:18:47;;;;;;;21.17;14.90;;;2.40;99.90;;;;;;4994641;28;20038;-71
2021/01/06 01:21:17;;;;;;;17.77;13.43;;;2.40;99.90;;;;;;4994836;28;20026;-71
2021/01/06 01:23:42;;;;;;;17.20;13.98;;;2.40;99.90;;;;;;4993177;28;20041;-71
2021/01/06 01:26:09;;;;;;;17.08;12.18;;;2.40;99.90;;;;;;4995133;28;20053;-71
2021/01/06 01:28:35;;;;;;;16.25;12.13;;;2.30;99.90;;;;;;4994124;28;20030;-71
2021/01/06 01:31:00;;;;;;;17.73;12.25;;;2.20;99.90;;;;;;4994717;28;20086;-73
2021/01/06 01:33:26;;;;;;;18.00;12.93;;;2.10;99.90;;;;;;4994508;28;20026;-72
2021/01/06 01:35:52;;;;;;;17.60;12.63;;;2.10;99.90;;;;;;4993628;28;20402;-70
2021/01/06 01:38:21;;;;;;;19.42;13.52;;;2.10;99.90;;;;;;4994308;28;20038;-70
2021/01/06 01:40:47;;;;;;;19.13;13.73;;;2.10;99.90;;;;;;4994263;28;20109;-71
2021/01/06 01:43:12;;;;;;;17.75;13.85;;;2.20;99.90;;;;;;4994899;28;20054;-72
2021/01/06 01:46:01;;;;;;;18.40;13.15;;;2.20;99.90;;;;;;4994425;28;20501;-72
2021/01/06 01:48:32;;;;;;;15.90;12.23;;;2.10;99.90;;;;;;5001117;28;20037;-73
2021/01/06 01:51:00;;;;;;;;;;;2.10;99.90;;;;;;5021266;28;20101;-73
2021/01/06 01:53:41;;;;;;;18.05;13.57;;;2.20;99.90;;;;;;5022829;28;19920;-72
2021/01/06 01:56:08;;;;;;;;;;;2.20;99.90;;;;;;5018784;28;20049;-70
2021/01/06 01:58:36;;;;;;;17.50;12.30;;;2.10;99.90;;;;;;5018496;28;20213;-70
2021/01/06 02:01:03;;;;;;;19.52;12.15;;;2.10;99.90;;;;;;5004211;28;20046;-71
2021/01/06 02:03:34;;;;;;;18.27;12.57;;;2.10;99.90;;;;;;4994654;28;20654;-71
2021/01/06 02:06:36;;;;;;;18.20;12.90;;;2.10;99.90;;;;;;4994279;28;20113;-71
2021/01/06 02:09:21;;;;;;;18.65;12.50;;;2.10;99.90;;;;;;4980089;28;20022;-71
2021/01/06 02:12:02;;;;;;;19.65;13.27;;;2.10;99.90;;;;;;4994748;28;20033;-73
2021/01/06 02:14:51;;;;;;;16.02;11.75;;;2.10;99.90;;;;;;4994957;28;20026;-72
2021/01/06 02:17:16;;;;;;;18.52;12.85;;;2.10;99.90;;;;;;5021045;28;20034;-71
2021/01/06 02:19:44;;;;;;;15.52;12.35;;;2.10;99.90;;;;;;5004905;28;20062;-70
2021/01/06 02:22:14;;;;;;;16.05;12.88;;;2.00;99.90;;;;;;5000367;28;20026;-72
2021/01/06 02:24:40;;;;;;;19.17;12.23;;;2.00;99.90;;;;;;4996565;28;20026;-72
2021/01/06 02:27:07;;;;;;;17.15;11.90;;;1.90;99.90;;;;;;4993954;28;20040;-71
2021/01/06 02:29:35;;;;;;;15.25;11.52;;;1.90;99.90;;;;;;4993781;28;20026;-73
2021/01/06 02:32:02;;;;;;;17.80;11.77;;;1.90;99.90;;;;;;4995449;28;20025;-72
2021/01/06 02:34:27;;;;;;;17.65;11.88;;;1.90;99.90;;;;;;4994916;28;20038;-71
2021/01/06 02:36:54;;;;;;;17.30;12.05;;;1.90;99.90;;;;;;4995239;28;20026;-73
2021/01/06 02:39:19;;;;;;;15.38;11.57;;;1.80;99.90;;;;;;4994648;28;20108;-71
2021/01/06 02:41:47;;;;;;;17.70;10.95;;;1.80;99.90;;;;;;4994356;28;20506;-72
2021/01/06 02:44:14;;;;;;;17.08;13.10;;;1.80;99.90;;;;;;4994835;28;20038;-71
2021/01/06 02:46:39;;;;;;;17.10;11.70;;;1.80;99.90;;;;;;4995488;28;20023;-73
2021/01/06 02:49:07;;;;;;;16.33;12.43;;;1.80;99.90;;;;;;4992957;28;20482;-72
2021/01/06 02:52:05;;;;;;;16.65;12.15;;;1.70;99.90;;;;;;4993939;28;20026;-71
2021/01/06 02:54:36;;;;;;;17.88;11.90;;;1.70;99.90;;;;;;4974785;28;20023;-71
2021/01/06 02:57:04;;;;;;;17.20;11.85;;;1.70;99.90;;;;;;5009753;28;20446;-71
2021/01/06 02:59:43;;;;;;;20.80;13.48;;;1.70;99.90;;;;;;4993507;28;20045;-72
2021/01/06 03:02:11;;;;;;;18.58;11.88;;;1.70;99.90;;;;;;4993840;28;20114;-70
2021/01/06 03:04:41;;;;;;;14.10;11.73;;;1.60;99.90;;;;;;4994204;28;20026;-71
2021/01/06 03:07:10;;;;;;;19.17;12.15;;;1.60;99.90;;;;;;4971680;28;20042;-69
2021/01/06 03:09:39;;;;;;;16.10;12.45;;;1.60;99.90;;;;;;5011523;28;20026;-71
2021/01/06 03:12:10;;;;;;;19.40;14.40;;;1.60;99.90;;;;;;4975991;28;20073;-73
2021/01/06 03:14:37;;;;;;;17.73;13.85;;;1.60;99.90;;;;;;5007141;28;20030;-72
2021/01/06 03:17:05;;;;;;;17.80;13.00;;;1.60;99.90;;;;;;5011783;28;20092;-72
2021/01/06 03:19:34;;;;;;;19.92;12.80;;;1.60;99.90;;;;;;5012258;28;20117;-72
2021/01/06 03:22:03;;;;;;;19.27;13.32;;;1.60;99.90;;;;;;5012340;28;20025;-72
2021/01/06 03:24:33;;;;;;;14.70;12.10;;;1.60;99.90;;;;;;5012494;28;20552;-72
2021/01/06 03:27:00;;;;;;;22.33;12.75;;;1.50;99.90;;;;;;5013034;28;20457;-72
2021/01/06 03:29:28;;;;;;;15.95;12.60;;;1.50;99.90;;;;;;5012855;28;20060;-72
2021/01/06 03:31:59;;;;;;;18.90;12.77;;;1.50;99.90;;;;;;5012221;28;20026;-72
2021/01/06 03:34:30;;;;;;;19.85;13.75;;;1.60;99.90;;;;;;5012479;28;20108;-73
2021/01/06 03:37:06;;;;;;;16.83;13.38;;;1.50;99.90;;;;;;4994513;28;20057;-72
2021/01/06 03:39:38;;;;;;;15.75;12.93;;;1.50;99.90;;;;;;5015283;28;20030;-72
2021/01/06 03:42:04;;;;;;;16.17;12.70;;;1.50;99.90;;;;;;4998600;28;20025;-72
2021/01/06 03:44:30;;;;;;;16.35;12.93;;;1.50;99.90;;;;;;5008531;28;20338;-73
2021/01/06 03:47:04;;;;;;;18.52;13.75;;;1.50;99.90;;;;;;4998620;28;20022;-72
2021/01/06 03:50:00;;;;;;;20.00;15.02;;;1.50;99.90;;;;;;5015863;28;20026;-72
2021/01/06 03:52:58;;;;;;;17.92;13.50;;;1.50;99.90;;;;;;4995491;28;20021;-72
2021/01/06 03:55:50;;;;;;;17.27;12.75;;;1.60;99.90;;;;;;5016451;28;20065;-72
2021/01/06 03:58:25;;;;;;;21.60;14.77;;;1.50;99.90;;;;;;5017867;28;20041;-73
2021/01/06 04:00:57;;;;;;;18.38;14.27;;;1.50;99.90;;;;;;5024017;28;20025;-72
2021/01/06 04:03:39;;;;;;;18.75;14.70;;;1.60;99.90;;;;;;5016131;28;20026;-73
2021/01/06 04:06:06;;;;;;;16.45;13.32;;;1.60;99.90;;;;;;5015619;28;20026;-72
2021/01/06 04:08:45;;;;;;;16.38;12.52;;;1.60;99.90;;;;;;5015741;28;20120;-72
2021/01/06 04:11:16;;;;;;;16.95;12.77;;;1.60;99.90;;;;;;5015501;28;20085;-73
2021/01/06 04:13:42;;;;;;;;;;;1.50;99.90;;;;;;5014958;28;20104;-73
2021/01/06 04:16:07;;;;;;;16.80;13.20;;;1.60;99.90;;;;;;4994637;28;19995;-73
2021/01/06 04:18:33;;;;;;;17.00;13.27;;;1.80;99.90;;;;;;5010558;28;20034;-72
2021/01/06 04:21:03;;;;;;;21.02;13.10;;;1.80;99.90;;;;;;4998704;28;20030;-73
2021/01/06 04:23:29;;;;;;;18.05;12.70;;;1.80;99.90;;;;;;5016805;28;20034;-73
2021/01/06 04:25:54;;;;;;;18.05;12.77;;;1.80;99.90;;;;;;5020173;28;20407;-73
2021/01/06 04:28:26;;;;;;;18.67;13.27;;;1.70;99.90;;;;;;5022204;28;20022;-72
2021/01/06 04:30:57;;;;;;;19.83;13.63;;;1.70;99.90;;;;;;5021943;28;20025;-73
2021/01/06 04:33:34;;;;;;;18.88;13.65;;;1.70;99.90;;;;;;5019602;28;20048;-72
2021/01/06 04:36:04;;;;;;;17.27;12.88;;;1.70;99.90;;;;;;5019575;28;20030;-73
2021/01/06 04:38:35;;;;;;;18.30;13.47;;;1.70;99.90;;;;;;5001546;28;20033;-73
2021/01/06 04:41:16;;;;;;;19.13;14.20;;;1.70;99.90;;;;;;5018211;28;20276;-73
2021/01/06 04:43:59;;;;;;;20.25;14.63;;;1.70;99.90;;;;;;5017461;28;20394;-74
2021/01/06 04:46:40;;;;;;;18.45;12.50;;;1.70;99.90;;;;;;5002486;28;20022;-74
2021/01/06 04:49:11;;;;;;;21.75;12.98;;;1.70;99.90;;;;;;4997383;28;20037;-74
2021/01/06 04:52:04;;;;;;;18.95;13.48;;;1.60;99.90;;;;;;5015020;28;20042;-74
2021/01/06 04:54:38;;;;;;;22.33;13.88;;;1.60;99.90;;;;;;5000514;28;20020;-74
2021/01/06 04:57:26;;;;;;;18.83;13.48;;;1.50;99.90;;;;;;5015407;28;20053;-73
2021/01/06 05:00:22;;;;;;;18.98;13.18;;;1.60;99.90;;;;;;5014929;28;20030;-73
2021/01/06 05:03:08;;;;;;;14.70;11.80;;;1.80;99.90;;;;;;5013035;28;20029;-75
2021/01/06 05:05:47;;;;;;;22.33;13.45;;;1.80;99.90;;;;;;5015682;28;20029;-74
2021/01/06 05:08:33;;;;;;;18.55;12.82;;;1.80;99.90;;;;;;5015671;28;20030;-74
2021/01/06 05:11:10;;;;;;;17.23;12.18;;;1.70;99.90;;;;;;5016148;28;20025;-74
2021/01/06 05:14:01;;;;;;;16.80;12.82;;;1.60;99.90;;;;;;4998609;28;20174;-75
2021/01/06 05:16:39;;;;;;;16.50;12.40;;;1.70;99.90;;;;;;4990279;28;20049;-74
2021/01/06 05:19:12;;;;;;;16.60;11.77;;;1.70;99.90;;;;;;4993960;28;20046;-74
2021/01/06 05:21:38;;;;;;;14.90;11.88;;;1.70;99.90;;;;;;4991870;28;20567;-73
2021/01/06 05:24:26;;;;;;;15.18;11.70;;;1.70;99.90;;;;;;5016054;28;20425;-73
2021/01/06 05:27:09;;;;;;;18.17;12.18;;;1.80;99.90;;;;;;5001752;28;20053;-73
2021/01/06 05:29:35;;;;;;;13.27;10.07;;;1.70;99.90;;;;;;5013304;28;20145;-73
2021/01/06 05:32:01;;;;;;;14.48;10.90;;;1.70;99.90;;;;;;5003832;28;20046;-72
2021/01/06 05:34:28;;;;;;;13.45;11.00;;;1.70;99.90;;;;;;5022840;28;20081;-73
2021/01/06 05:36:53;;;;;;;12.82;9.95;;;1.60;99.90;;;;;;5016736;28;20030;-75
2021/01/06 05:39:22;;;;;;;13.20;9.80;;;1.60;99.90;;;;;;5016446;28;20056;-74
2021/01/06 05:41:51;;;;;;;13.73;10.60;;;1.60;99.90;;;;;;5016823;28;20030;-74
2021/01/06 05:44:16;;;;;;;14.13;10.30;;;1.60;99.90;;;;;;5020416;28;20022;-73
2021/01/06 05:46:45;;;;;;;11.98;9.75;;;1.60;99.90;;;;;;5003215;28;20026;-73
2021/01/06 05:49:21;;;;;;;14.93;11.82;;;1.50;99.90;;;;;;5005146;28;20034;-74
2021/01/06 05:51:58;;;;;;;12.82;9.63;;;1.50;99.90;;;;;;5023221;28;20477;-73
2021/01/06 05:54:34;;;;;;;12.15;9.73;;;1.50;99.90;;;;;;5025663;28;20073;-73
2021/01/06 05:57:20;;;;;;;10.63;9.52;;;1.50;99.90;;;;;;5018620;28;20116;-76
2021/01/06 05:59:49;;;;;;;11.25;9.80;;;1.60;99.90;;;;;;4996559;28;20026;-73
2021/01/06 06:02:23;;;;;;;12.43;9.93;;;1.50;99.90;;;;;;5013765;28;20033;-74
2021/01/06 06:05:19;;;;;;;12.38;9.55;;;1.50;99.90;;;;;;4996292;28;20113;-75
2021/01/06 06:08:19;;;;;;;12.73;9.73;;;1.50;99.90;;;;;;5008893;28;20041;-75
2021/01/06 06:11:01;;;;;;;12.60;8.88;;;1.50;99.90;;;;;;5000859;28;20159;-75
2021/01/06 06:14:08;;;;;;;13.38;9.73;;;1.50;99.90;;;;;;4996197;28;20100;-75
2021/01/06 06:16:51;;;;;;;12.43;9.73;;;1.50;99.90;;;;;;5013262;28;20125;-75
2021/01/06 06:19:47;;;;;;;10.95;9.48;;;1.50;99.90;;;;;;5013056;28;20440;-75
2021/01/06 06:22:22;;;;;;;13.20;10.63;;;1.60;99.90;;;;;;5013375;28;20041;-74
2021/01/06 06:24:58;;;;;;;12.85;8.95;;;1.60;99.90;;;;;;5013662;28;20133;-74
2021/01/06 06:28:00;;;;;;;10.13;8.88;;;1.60;99.90;;;;;;5008505;28;20034;-74
2021/01/06 06:30:48;;;;;;;10.35;9.25;;;1.50;99.90;;;;;;4998445;28;20385;-74
2021/01/06 06:33:18;;;;;;;10.05;9.00;;;1.50;99.90;;;;;;5013494;28;20101;-74
2021/01/06 06:35:50;;;;;;;10.47;8.40;;;1.50;99.90;;;;;;4996067;28;20022;-74
2021/01/06 06:38:18;;;;;;;11.43;8.68;;;1.50;99.90;;;;;;5013199;28;20390;-75
2021/01/06 06:40:46;;;;;;;12.07;9.55;;;1.50;99.90;;;;;;5012956;28;20129;-74
2021/01/06 06:43:28;;;;;;;12.38;9.32;;;1.60;99.90;;;;;;5012716;28;20511;-74
2021/01/06 06:46:10;;;;;;;9.70;8.70;;;1.60;99.90;;;;;;4995200;28;20045;-73
2021/01/06 06:48:40;;;;;;;11.82;8.75;;;1.60;99.90;;;;;;4994835;28;20030;-74
2021/01/06 06:51:19;;;;;;;9.10;8.20;;;1.60;99.90;;;;;;5013042;28;20441;-74
2021/01/06 06:54:16;;;;;;;9.32;7.60;;;1.60;99.90;;;;;;5012491;28;20033;-74
2021/01/06 06:56:53;;;;;;;9.80;7.57;;;1.60;99.90;;;;;;5013845;28;20398;-74
2021/01/06 06:59:49;;;;;;;11.77;9.65;;;1.60;99.90;;;;;;5012409;28;20052;-75
2021/01/06 07:02:15;;;;;;;10.20;9.05;;;1.60;99.90;;;;;;5013100;28;20107;-74
2021/01/06 07:04:47;;;;;;;11.00;9.00;;;1.60;99.90;;;;;;5012690;28;20026;-74
2021/01/06 07:07:38;;;;;;;9.05;8.02;;;1.60;99.90;;;;;;5012748;28;20041;-75
2021/01/06 07:10:11;;;;;;;10.70;7.95;;;1.80;99.90;;;;;;5013291;28;20037;-75
2021/01/06 07:12:40;;;;;;;10.35;8.88;;;1.70;99.90;;;;;;4997797;28;20406;-73
2021/01/06 07:15:18;;;;;;;10.27;8.35;;;1.60;99.90;;;;;;5019156;28;20418;-74
2021/01/06 07:17:43;;;;;;;9.27;8.35;;;1.60;99.90;;;;;;5018864;28;20026;-74
2021/01/06 07:20:13;;;;;;;10.10;8.32;;;1.60;99.90;;;;;;5018990;28;20375;-73
2021/01/06 07:22:52;;;;;;;8.27;7.18;;;1.60;99.90;;;;;;5019449;28;20086;-74
2021/01/06 07:25:18;;;;;;;10.02;8.23;;;1.60;99.90;;;;;;5019314;28;20022;-74
2021/01/06 07:27:46;;;;;;;9.48;8.48;;;1.60;99.90;;;;;;5019478;28;20030;-74
2021/01/06 07:30:55;;;;;;;9.43;7.50;;;1.60;99.90;;;;;;5019405;28;20425;-74
2021/01/06 07:33:25;;;;;;;8.68;7.78;;;1.70;99.90;;;;;;5001584;28;20063;-73
2021/01/06 07:35:51;;;;;;;7.85;7.05;;;1.60;99.90;;;;;;5002954;28;20022;-74
2021/01/06 07:38:19;;;;;;;11.45;8.57;;;1.60;99.90;;;;;;5019593;28;20080;-73
2021/01/06 07:40:47;;;;;;;9.07;8.13;;;1.60;99.90;;;;;;5019228;28;20029;-75
2021/01/06 07:43:17;;;;;;;8.52;7.55;;;1.60;99.90;;;;;;5019327;28;20084;-74
2021/01/06 07:45:50;;;;;;;11.05;7.93;;;1.60;99.90;;;;;;5018840;28;20034;-73
2021/01/06 07:48:15;;;;;;;8.13;7.30;;;1.60;99.90;;;;;;5000956;28;20043;-74
2021/01/06 07:51:01;;;;;;;9.43;7.22;;;1.70;99.90;;;;;;5019295;28;20100;-74
2021/01/06 07:53:37;;;;;;;8.52;7.53;;;1.70;99.90;;;;;;5011449;28;20056;-74
2021/01/06 07:56:10;;;;;;;9.68;8.05;;;1.70;99.90;;;;;;5018636;28;20032;-76
2021/01/06 07:58:43;;;;;;;9.73;7.47;;;1.60;99.90;;;;;;5018952;28;20092;-74
2021/01/06 08:01:32;;;;;;;9.48;8.52;;;1.70;99.90;;;;;;5018631;28;20026;-75
2021/01/06 08:04:37;;;;;;;10.80;8.82;;;1.70;99.90;;;;;;5001367;28;20056;-73
2021/01/06 08:07:07;;;;;;;10.77;8.57;;;1.60;99.90;;;;;;4977055;28;20398;-74
2021/01/06 08:09:41;;;;;;;10.68;9.13;;;1.70;99.90;;;;;;5008821;28;20033;-74
2021/01/06 08:12:33;;;;;;;10.95;8.30;;;1.60;99.90;;;;;;5018955;28;20464;-75
2021/01/06 08:15:18;;;;;;;9.65;7.63;;;1.80;99.90;;;;;;5019468;28;20041;-74
2021/01/06 08:18:04;;;;;;;10.00;9.00;;;1.80;99.90;;;;;;5016286;28;20509;-74
2021/01/06 08:21:08;;;;;;;9.82;8.45;;;1.80;99.90;;;;;;5015253;28;20168;-75
2021/01/06 08:23:48;;;;;;;9.52;8.52;;;1.80;99.90;;;;;;5015247;28;20079;-75
2021/01/06 08:26:28;;;;;;;9.85;8.85;;;1.60;99.90;;;;;;5015120;28;20498;-75
2021/01/06 08:29:09;;;;;;;9.88;8.20;;;1.60;99.90;;;;;;5001752;28;20034;-75
2021/01/06 08:31:36;;;;;;;10.85;9.73;;;1.50;99.90;;;;;;5003639;28;20038;-74
2021/01/06 08:34:02;;;;;;;11.15;9.60;;;1.50;99.90;;;;;;5016614;28;20026;-74
2021/01/06 08:36:36;;;;;;;10.68;9.57;;;1.50;99.90;;;;;;4999510;28;20094;-74
2021/01/06 08:39:07;;;;;;;10.70;9.35;;;1.50;99.90;;;;;;4998850;28;20068;-74
2021/01/06 08:41:33;;;;;;;11.50;10.25;;;1.50;99.90;;;;;;4999776;28;20145;-74
2021/01/06 08:44:00;;;;;;;9.90;8.90;;;1.50;99.90;;;;;;5016236;28;20032;-74
2021/01/06 08:46:32;;;;;;;9.95;8.95;;;1.50;99.90;;;;;;5000306;28;20028;-74
2021/01/06 08:49:30;;;;;;;10.40;9.30;;;1.50;99.90;;;;;;5016729;28;20026;-74
2021/01/06 08:52:21;;;;;;;9.55;8.43;;;1.60;99.90;;;;;;5018607;28;20037;-73
2021/01/06 08:55:01;;;;;;;11.45;8.85;;;1.60;99.90;;;;;;4986065;28;20478;-74
2021/01/06 08:57:32;;;;;;;10.27;9.15;;;1.70;99.90;;;;;;5007599;28;20061;-74
2021/01/06 09:00:35;;;;;;;10.55;8.80;;;1.60;99.90;;;;;;4998587;28;20026;-75
2021/01/06 09:03:17;;;;;;;9.57;8.57;;;1.70;99.90;;;;;;4979976;28;20034;-74
2021/01/06 09:05:45;;;;;;;10.25;9.13;;;1.70;99.90;;;;;;5016499;28;20393;-73
2021/01/06 09:08:27;;;;;;;10.07;8.05;;;1.60;99.90;;;;;;4998305;28;20022;-73
2021/01/06 09:11:07;;;;;;;10.43;8.63;;;1.70;99.90;;;;;;5037708;28;20041;-73
2021/01/06 09:13:36;;;;;;;9.52;8.52;;;1.70;99.90;;;;;;5033023;28;20028;-75
2021/01/06 09:16:13;;;;;;;9.50;8.38;;;1.70;99.90;;;;;;5039758;28;20044;-75
2021/01/06 09:18:53;;;;;;;10.73;8.65;;;1.70;99.90;;;;;;5038348;28;20408;-75
2021/01/06 09:21:23;;;;;;;11.27;8.73;;;1.70;99.90;;;;;;5023873;28;20053;-75
2021/01/06 09:23:54;;;;;;;11.02;9.18;;;1.60;99.90;;;;;;4999643;28;20026;-74
2021/01/06 09:26:25;;;;;;;9.68;8.48;;;1.70;99.90;;;;;;5016766;28;20040;-75
2021/01/06 09:29:10;;;;;;;9.88;8.88;;;1.70;99.90;;;;;;5017304;28;20084;-75
2021/01/06 09:31:44;;;;;;;12.02;7.80;;;1.60;99.90;;;;;;5014846;28;20112;-75
2021/01/06 09:34:15;;;;;;;11.35;8.55;;;1.60;99.90;;;;;;5016629;28;20548;-75
2021/01/06 09:36:42;;;;;;;10.90;9.55;;;1.70;99.90;;;;;;5016708;28;20030;-75
2021/01/06 09:39:16;;;;;;;9.57;8.30;;;1.80;99.90;;;;;;5015115;28;20026;-74
2021/01/06 09:41:43;;;;;;;10.10;8.95;;;2.00;99.90;;;;;;4997894;28;20117;-74
2021/01/06 09:44:10;;;;;;;10.60;9.50;;;1.90;99.90;;;;;;5016108;28;20037;-75
2021/01/06 09:46:50;;;;;;;8.75;7.85;;;1.90;99.90;;;;;;5015455;28;20481;-73
2021/01/06 09:49:23;;;;;;;11.80;8.57;;;1.80;99.90;;;;;;5015091;28;20113;-74
2021/01/06 09:51:52;;;;;;;9.45;8.35;;;1.80;99.90;;;;;;5015119;28;20026;-74
2021/01/06 09:54:20;;;;;;;9.75;8.25;;;2.00;99.90;;;;;;5015593;28;20017;-74
2021/01/06 09:56:46;;;;;;;9.60;8.35;;;2.00;99.90;;;;;;5013990;28;20112;-76
2021/01/06 09:59:34;;;;;;;15.13;11.20;;;1.90;99.90;;;;;;5016396;28;20029;-74
2021/01/06 10:02:23;;;;;;;10.30;9.25;;;1.80;99.90;;;;;;5015948;28;20033;-75
2021/01/06 10:04:51;;;;;;;9.57;8.45;;;1.80;99.90;;;;;;5016308;28;20030;-74
2021/01/06 10:07:32;;;;;;;9.40;8.40;;;1.80;99.90;;;;;;5014826;28;20030;-74
2021/01/06 10:10:04;;;;;;;11.40;8.63;;;1.80;99.90;;;;;;5014392;28;20017;-75
2021/01/06 10:12:42;;;;;;;9.18;8.18;;;1.80;99.90;;;;;;4993401;28;20038;-73
2021/01/06 10:15:21;;;;;;;13.23;9.90;;;1.80;99.90;;;;;;5011784;28;20053;-74
2021/01/06 10:18:11;;;;;;;11.35;8.60;;;1.80;99.90;;;;;;5014391;28;20030;-74
2021/01/06 10:20:52;;;;;;;14.95;10.52;;;1.90;99.90;;;;;;5015514;28;20022;-75
2021/01/06 10:23:32;;;;;;;14.48;9.90;;;1.90;99.90;;;;;;4997084;28;20108;-75
2021/01/06 10:26:14;;;;;;;9.77;8.77;;;1.90;99.90;;;;;;5015814;28;20036;-75
2021/01/06 10:28:47;;;;;;;9.20;8.23;;;2.00;99.90;;;;;;5001989;28;20031;-74
2021/01/06 10:31:22;;;;;;;12.07;8.73;;;2.00;99.90;;;;;;5015432;28;20108;-75
2021/01/06 10:34:10;;;;;;;12.35;8.40;;;2.00;99.90;;;;;;5015373;28;20057;-75
2021/01/06 10:36:54;;;;;;;11.00;8.38;;;2.00;99.90;;;;;;5007659;28;20601;-75
2021/01/06 10:39:45;;;;;;;9.60;8.60;;;1.90;99.90;;;;;;5018179;28;20064;-74
2021/01/06 10:42:17;;;;;;;9.23;8.27;;;2.00;99.90;;;;;;5019657;28;20029;-75
2021/01/06 10:44:56;;;;;;;10.38;9.32;;;2.10;99.90;;;;;;5018149;28;20030;-75
2021/01/06 10:47:31;;;;;;;9.40;8.40;;;2.10;99.90;;;;;;5018317;28;20026;-74
2021/01/06 10:50:28;;;;;;;9.65;8.32;;;2.00;99.90;;;;;;5016381;28;20474;-74
2021/01/06 10:53:12;;;;;;;10.55;8.85;;;2.00;99.90;;;;;;5017711;28;20489;-75
2021/01/06 10:55:42;;;;;;;12.05;10.13;;;1.80;99.90;;;;;;5002606;28;20057;-74
2021/01/06 10:58:12;;;;;;;11.77;10.05;;;1.90;99.90;;;;;;5001501;28;20120;-74
2021/01/06 11:00:49;;;;;;;10.80;9.70;;;2.00;99.90;;;;;;5021947;28;20026;-74
2021/01/06 11:03:36;;;;;;;12.82;11.07;;;1.90;99.90;;;;;;4994405;28;20037;-74
2021/01/06 11:06:26;;;;;;;10.38;9.30;;;2.00;99.90;;;;;;5020738;28;20025;-73
2021/01/06 11:09:09;;;;;;;12.00;10.20;;;1.90;99.90;;;;;;5018713;28;20493;-75
2021/01/06 11:11:56;;;;;;;12.35;9.02;;;1.90;99.90;;;;;;5016243;28;20072;-74
2021/01/06 11:14:39;;;;;;;11.50;9.57;;;1.90;99.90;;;;;;5013471;28;20496;-73
2021/01/06 11:17:36;;;;;;;13.45;10.05;;;2.10;99.90;;;;;;5012660;28;20470;-74
2021/01/06 11:20:25;;;;;;;14.50;10.45;;;2.20;99.90;;;;;;4991754;28;20111;-74
2021/01/06 11:23:11;;;;;;;11.35;10.10;;;2.00;99.90;;;;;;5012784;28;20470;-75
2021/01/06 11:25:48;;;;;;;11.50;10.30;;;2.00;99.90;;;;;;5013115;28;20069;-75
2021/01/06 11:28:29;;;;;;;12.90;10.70;;;2.00;99.90;;;;;;5016111;28;20018;-75
2021/01/06 11:31:05;;;;;;;12.05;10.77;;;1.90;99.90;;;;;;5015654;28;20033;-74
2021/01/06 11:33:31;;;;;;;12.52;10.43;;;1.90;99.90;;;;;;5012311;28;20029;-74
2021/01/06 11:36:00;;;;;;;12.45;10.25;;;2.00;99.90;;;;;;5015906;28;20022;-78
2021/01/06 11:38:37;;;;;;;12.35;10.32;;;2.00;99.90;;;;;;5014878;28;20030;-74
2021/01/06 11:41:05;;;;;;;11.02;9.82;;;2.10;99.90;;;;;;5016796;28;20083;-75
2021/01/06 11:43:33;;;;;;;12.18;10.65;;;2.10;99.90;;;;;;5015799;28;20084;-76
2021/01/06 11:46:11;;;;;;;10.43;9.38;;;2.00;99.90;;;;;;5014879;28;20034;-77
2021/01/06 11:48:38;;;;;;;13.05;11.38;;;2.00;99.90;;;;;;5014373;28;20029;-74
2021/01/06 11:51:22;;;;;;;13.57;10.98;;;2.10;99.90;;;;;;5018468;28;20022;-74
2021/01/06 11:54:12;;;;;;;12.55;11.07;;;2.10;99.90;;;;;;5018534;28;20026;-74
2021/01/06 11:56:48;;;;;;;13.82;10.65;;;2.10;99.90;;;;;;5016324;28;20025;-74
2021/01/06 11:59:28;;;;;;;12.65;11.35;;;2.10;99.90;;;;;;4984657;28;20406;-75
2021/01/06 12:02:12;;;;;;;12.13;10.77;;;2.10;99.90;;;;;;5021310;28;20037;-77
2021/01/06 12:04:59;;;;;;;13.35;10.60;;;2.10;99.90;;;;;;4989423;28;20034;-73
2021/01/06 12:07:47;;;;;;;12.23;10.93;;;2.00;99.90;;;;;;5019092;28;20037;-74
2021/01/06 12:10:24;;;;;;;13.57;11.82;;;2.00;99.90;;;;;;5019017;28;20034;-76
2021/01/06 12:13:05;;;;;;;13.32;10.90;;;2.00;99.90;;;;;;5020436;28;20109;-74
2021/01/06 12:15:37;;;;;;;12.77;11.35;;;2.00;99.90;;;;;;5017449;28;20533;-74
2021/01/06 12:18:12;;;;;;;11.50;10.30;;;2.10;99.90;;;;;;5019256;28;20140;-75
2021/01/06 12:20:45;;;;;;;14.02;11.65;;;2.10;99.90;;;;;;5016166;28;20033;-75
2021/01/06 12:23:13;;;;;;;14.85;13.25;;;2.20;99.90;;;;;;5017257;28;20034;-74
2021/01/06 12:25:46;;;;;;;14.73;12.73;;;2.20;99.90;;;;;;5017938;28;20645;-75
2021/01/06 12:28:44;;;;;;;21.15;16.98;;;2.30;99.90;;;;;;5000191;28;20022;-74
2021/01/06 12:31:17;;;;;;;17.00;14.75;;;2.40;99.90;;;;;;5015149;28;20034;-75
2021/01/06 12:34:05;;;;;;;16.10;14.40;;;2.30;99.90;;;;;;5017246;28;20026;-75
2021/01/06 12:36:35;;;;;;;13.00;11.60;;;2.30;99.90;;;;;;5018226;28;20057;-75
2021/01/06 12:39:29;;;;;;;14.32;11.80;;;2.10;99.90;;;;;;4999988;28;20083;-75
2021/01/06 12:42:24;;;;;;;11.68;10.50;;;2.10;99.90;;;;;;4999201;28;20485;-75
2021/01/06 12:45:01;;;;;;;12.82;11.23;;;2.20;99.90;;;;;;5013833;28;20099;-75
2021/01/06 12:47:32;;;;;;;12.93;11.55;;;2.20;99.90;;;;;;5018435;28;20498;-76
2021/01/06 12:50:26;;;;;;;11.55;10.07;;;2.20;99.90;;;;;;5017596;28;20022;-74
2021/01/06 12:53:19;;;;;;;11.93;10.73;;;2.20;99.90;;;;;;5018207;28;20022;-74
2021/01/06 12:55:54;;;;;;;11.82;10.65;;;2.20;99.90;;;;;;5017467;28;20026;-74
2021/01/06 12:58:35;;;;;;;13.15;10.90;;;2.20;99.90;;;;;;4998990;28;20048;-74
2021/01/06 13:01:17;;;;;;;11.63;10.35;;;2.20;99.90;;;;;;5017843;28;20084;-75
2021/01/06 13:03:58;;;;;;;11.75;10.55;;;2.20;99.90;;;;;;5004127;28;20116;-76
2021/01/06 13:07:19;;;;;;;10.45;9.35;;;2.10;99.90;;;;;;5000943;28;20025;-75
2021/01/06 13:10:04;;;;;;;13.15;11.20;;;2.10;99.90;;;;;;4917675;29;20476;-75
2021/01/06 13:12:54;;;;;;;12.18;10.73;;;2.10;99.90;;;;;;4910500;29;20038;-73
2021/01/06 13:15:42;;;;;;;11.95;10.45;;;2.10;99.90;;;;;;4985010;28;20040;-74
2021/01/06 13:18:16;;;;;;;11.60;10.40;;;2.20;99.90;;;;;;5018285;28;20018;-74
2021/01/06 13:21:01;;;;;;;10.90;9.57;;;2.20;99.90;;;;;;5006345;28;20022;-74
2021/01/06 13:23:49;;;;;;;11.32;9.38;;;2.10;99.90;;;;;;4996613;28;20057;-74
2021/01/06 13:26:18;;;;;;;10.15;9.05;;;2.20;99.90;;;;;;5008267;28;20069;-76